Aviation Digital Data Service (ADDS)

Output produced by METARs form (1342 UTC 27 November 2021)
found at http://aviationweather.gov/metar/data/
 
KSNS 271253Z AUTO 10007KT 10SM CLR 07/01 A3012 RMK AO2 SLP209 T00720006
KSNS 271120Z 2712/2812 12011KT P6SM SCT250 
     FM271800 VRB06KT P6SM SCT200 
     FM272100 31007KT P6SM FEW200 
     FM280300 VRB03KT P6SM FEW200 
     FM280700 12008KT P6SM FEW200
       
KMRY 271254Z AUTO 13003KT 10SM CLR 09/03 A3011 RMK AO2 SLP207 T00890028
KMRY 271120Z 2712/2812 12004KT P6SM SCT250 
     FM271900 30005KT P6SM FEW200 
     FM280300 12004KT P6SM SCT200
       
KSJC 271335Z 00000KT 10SM FEW005 08/04 A3014 RMK AO2 T00780044
KSJC 271120Z 2712/2812 16004KT P6SM SCT200 
     FM271800 VRB04KT P6SM SCT200 
     FM272300 33006KT P6SM SCT200 
     FM280300 VRB03KT P6SM SCT200
       
KSFO 271256Z 26003KT 10SM FEW200 09/06 A3013 RMK AO2 SLP203 T00940061 $
KSFO 271120Z 2712/2818 VRB04KT P6SM FEW006 BKN200 
     FM271800 VRB05KT P6SM SCT200 
     FM272300 29009KT P6SM SCT200 
     FM280700 VRB03KT P6SM SCT200
       
KLVK 271253Z AUTO 04003KT 10SM CLR 06/03 A3014 RMK AO2 SLP204 T00560033
KLVK 271120Z 2712/2812 VRB03KT P6SM BKN250 
     FM272000 07007KT P6SM FEW200 
     FM280200 VRB05KT P6SM SCT200
       
KMCE 271253Z AUTO 00000KT 6SM BR CLR 06/04 A3015 RMK AO2 SLP208 T00560039
KMCE 271121Z 2712/2812 11004KT 3SM BR SCT120 BKN200 
     TEMPO 2713/2717 2SM BR 
     FM271900 VRB03KT 4SM HZ SCT200